Time;durP1;ratioP1;P1;durP2;ratioP2;P2;SDS_P1;SDS_P2;PMS_P1;PMS_P2;Temp;Humidity;BMP_temperature;BMP_pressure;BME280_temperature;BME280_humidity;BME280_pressure;Samples;Min_cycle;Max_cycle;Signal;HPM_P1;HPM_P2
2022/10/06 00:00:19;;;;;;;0.90;0.60;;;;;;;19.91;56.66;101505.47;4908188;28;96785;-51
2022/10/06 00:02:45;;;;;;;1.17;0.40;;;;;;;19.76;56.53;101527.59;4909045;28;99949;-51
2022/10/06 00:05:11;;;;;;;0.60;0.50;;;;;;;19.64;56.70;101528.28;4906456;28;97319;-51
2022/10/06 00:07:37;;;;;;;1.10;0.50;;;;;;;19.51;56.59;101542.22;4907765;28;97639;-51
2022/10/06 00:10:04;;;;;;;0.87;0.40;;;;;;;19.37;56.58;101541.47;4907978;28;97166;-52
2022/10/06 00:12:40;;;;;;;1.30;0.47;;;;;;;19.22;56.79;101558.63;4907227;28;97237;-51
2022/10/06 00:15:07;;;;;;;0.60;0.40;;;;;;;19.02;57.17;101567.59;4906007;28;96994;-53
2022/10/06 00:17:32;;;;;;;0.60;0.50;;;;;;;18.91;57.21;101578.13;4901986;28;98881;-51
2022/10/06 00:19:58;;;;;;;0.70;0.40;;;;;;;18.81;57.22;101574.97;4908667;28;97353;-51
2022/10/06 00:22:23;;;;;;;1.00;0.40;;;;;;;18.76;57.41;101586.97;4904814;28;97305;-50
2022/10/06 00:24:48;;;;;;;0.60;0.60;;;;;;;18.73;57.58;101588.00;4907656;28;97192;-50
2022/10/06 00:27:13;;;;;;;0.80;0.30;;;;;;;18.66;57.70;101585.81;4907939;28;106420;-51
2022/10/06 00:29:41;;;;;;;0.97;0.40;;;;;;;18.64;57.59;101582.78;4907407;28;110855;-50
2022/10/06 00:32:08;;;;;;;0.90;0.40;;;;;;;18.63;57.48;101586.88;4903278;28;96732;-51
2022/10/06 00:34:35;;;;;;;0.60;0.50;;;;;;;18.60;57.35;101587.91;4909249;28;97060;-50
2022/10/06 00:37:01;;;;;;;0.87;0.40;;;;;;;18.54;57.25;101578.88;4907638;28;97639;-49
2022/10/06 00:39:26;;;;;;;1.37;0.40;;;;;;;18.51;57.23;101577.13;4909262;28;97274;-49
2022/10/06 00:41:51;;;;;;;0.60;0.30;;;;;;;18.49;57.38;101590.84;4905865;28;97180;-49
2022/10/06 00:44:17;;;;;;;4.97;0.40;;;;;;;18.47;57.17;101601.75;4906975;28;106175;-49
2022/10/06 00:46:47;;;;;;;0.73;0.30;;;;;;;18.47;57.03;101590.63;4907516;28;97273;-50
2022/10/06 00:49:27;;;;;;;0.50;0.37;;;;;;;18.46;56.92;101595.44;4902256;28;97391;-49
2022/10/06 00:52:06;;;;;;;5.30;0.30;;;;;;;18.43;56.88;101607.59;4905408;28;97013;-50
2022/10/06 00:54:32;;;;;;;8.00;0.40;;;;;;;18.41;56.97;101629.66;4903752;28;96728;-50
2022/10/06 00:56:58;;;;;;;0.50;0.30;;;;;;;18.41;56.98;101610.13;4909548;28;97207;-49
2022/10/06 00:59:23;;;;;;;1.87;0.50;;;;;;;18.41;56.70;101620.56;4907222;28;98373;-50
2022/10/06 01:02:03;;;;;;;0.93;0.43;;;;;;;18.38;56.59;101625.13;4908818;28;96633;-50
2022/10/06 01:04:34;;;;;;;0.50;0.30;;;;;;;18.36;56.63;101624.91;4907665;28;97532;-50
2022/10/06 01:07:00;;;;;;;0.50;0.30;;;;;;;18.35;56.73;101630.97;4906597;28;98735;-50
2022/10/06 01:09:28;;;;;;;0.50;0.37;;;;;;;18.34;56.60;101629.50;4905194;28;97524;-50
2022/10/06 01:11:56;;;;;;;0.50;0.30;;;;;;;18.32;56.71;101637.63;4906701;28;97346;-50
2022/10/06 01:14:23;;;;;;;1.70;0.33;;;;;;;18.28;56.64;101637.88;4908162;28;98239;-50
2022/10/06 01:16:54;;;;;;;0.50;0.30;;;;;;;18.27;56.51;101633.59;4907352;28;97416;-50
2022/10/06 01:19:31;;;;;;;0.53;0.40;;;;;;;18.26;56.61;101646.00;4907570;28;97480;-50
2022/10/06 01:22:03;;;;;;;1.13;0.40;;;;;;;18.24;56.61;101648.56;4902494;28;98330;-50
2022/10/06 01:24:28;;;;;;;1.40;0.30;;;;;;;18.20;56.57;101644.56;4903135;28;97030;-50
2022/10/06 01:26:56;;;;;;;0.70;0.40;;;;;;;18.21;56.65;101643.28;4906443;28;97375;-50
2022/10/06 01:29:21;;;;;;;0.50;0.40;;;;;;;18.19;56.49;101660.53;4904195;28;97197;-51
2022/10/06 01:31:47;;;;;;;0.70;0.40;;;;;;;18.18;56.72;101666.63;4908365;28;101302;-49
2022/10/06 01:34:12;;;;;;;1.27;0.30;;;;;;;18.17;56.66;101665.88;4904988;28;100345;-51
2022/10/06 01:36:40;;;;;;;0.80;0.33;;;;;;;18.15;56.80;101668.41;4904237;28;111655;-50
2022/10/06 01:39:05;;;;;;;1.10;0.40;;;;;;;18.16;56.57;101666.38;4905232;28;98574;-49
2022/10/06 01:41:32;;;;;;;0.80;0.40;;;;;;;18.16;56.71;101674.75;4905295;28;97851;-49
2022/10/06 01:43:58;;;;;;;0.80;0.33;;;;;;;18.15;56.72;101679.53;4907528;28;97182;-50
2022/10/06 01:46:23;;;;;;;1.70;0.57;;;;;;;18.18;56.49;101672.19;4904657;28;97980;-49
2022/10/06 01:48:48;;;;;;;2.23;0.47;;;;;;;18.15;56.82;101670.47;4905194;28;106081;-50
2022/10/06 01:51:17;;;;;;;3.07;0.50;;;;;;;18.14;56.65;101672.47;4906817;28;96676;-49
2022/10/06 01:53:43;;;;;;;1.60;0.40;;;;;;;18.13;56.66;101693.25;4906139;28;97193;-50
2022/10/06 01:56:08;;;;;;;3.43;0.50;;;;;;;18.12;56.68;101680.59;4907151;28;97343;-49
2022/10/06 01:58:33;;;;;;;0.80;0.47;;;;;;;18.13;56.74;101684.16;4903838;28;98314;-49
2022/10/06 02:01:06;;;;;;;0.50;0.40;;;;;;;18.12;56.91;101682.63;4907677;28;97460;-49
2022/10/06 02:03:34;;;;;;;5.17;0.43;;;;;;;18.12;56.90;101694.53;4901812;28;97053;-49
2022/10/06 02:05:59;;;;;;;1.07;0.50;;;;;;;18.12;56.88;101708.47;4909653;28;97439;-49
2022/10/06 02:08:25;;;;;;;1.17;0.50;;;;;;;18.10;56.92;101704.69;4907246;28;97214;-50
2022/10/06 02:10:50;;;;;;;0.60;0.40;;;;;;;18.07;57.10;101711.28;4911379;28;97215;-50
2022/10/06 02:13:15;;;;;;;2.13;0.70;;;;;;;18.05;57.09;101711.81;4909876;28;97097;-49
2022/10/06 02:15:41;;;;;;;1.20;0.60;;;;;;;18.03;57.18;101719.16;4908237;28;97277;-50
2022/10/06 02:18:06;;;;;;;2.50;0.43;;;;;;;17.98;57.32;101724.25;4907442;28;107032;-49
2022/10/06 02:20:32;;;;;;;3.60;0.60;;;;;;;17.95;57.30;101733.63;4905916;28;96793;-49
2022/10/06 02:22:57;;;;;;;0.70;0.50;;;;;;;17.93;57.15;101736.19;4904571;28;96915;-49
2022/10/06 02:25:23;;;;;;;3.10;0.60;;;;;;;17.91;57.33;101737.97;4907842;28;97689;-48
2022/10/06 02:27:48;;;;;;;1.33;0.60;;;;;;;17.90;57.37;101747.63;4907035;28;97288;-48
2022/10/06 02:30:14;;;;;;;0.70;0.50;;;;;;;17.84;57.39;101758.78;4907242;28;97380;-49
2022/10/06 02:32:41;;;;;;;2.20;0.60;;;;;;;17.81;57.46;101759.81;4905224;28;96999;-50
2022/10/06 02:35:07;;;;;;;1.77;0.50;;;;;;;17.81;57.52;101770.97;4907535;28;99342;-49
2022/10/06 02:37:33;;;;;;;0.90;0.40;;;;;;;17.80;57.60;101774.25;4906683;28;100255;-50
2022/10/06 02:39:58;;;;;;;1.17;0.40;;;;;;;17.78;57.60;101774.00;4907580;28;96712;-50
2022/10/06 02:42:24;;;;;;;0.60;0.50;;;;;;;17.77;57.60;101781.63;4913233;28;97211;-48
2022/10/06 02:44:51;;;;;;;0.80;0.50;;;;;;;17.73;57.70;101775.56;4906041;28;97598;-49
2022/10/06 02:47:17;;;;;;;2.23;0.50;;;;;;;17.71;57.94;101792.00;4908717;28;99288;-48
2022/10/06 02:49:43;;;;;;;0.60;0.50;;;;;;;17.71;57.72;101796.84;4906806;28;97321;-49
2022/10/06 02:52:09;;;;;;;6.00;0.60;;;;;;;17.68;57.85;101797.84;4906892;28;96797;-48
2022/10/06 02:54:35;;;;;;;0.60;0.40;;;;;;;17.66;57.73;101792.81;4906972;28;97252;-49
2022/10/06 02:57:01;;;;;;;1.17;0.30;;;;;;;17.64;57.83;101802.94;4906969;28;97086;-50
2022/10/06 02:59:26;;;;;;;0.70;0.37;;;;;;;17.58;58.03;101805.72;4908508;28;97343;-48
2022/10/06 03:01:52;;;;;;;1.57;0.40;;;;;;;17.57;57.96;101809.03;4907193;28;97311;-48
2022/10/06 03:04:17;;;;;;;2.43;0.57;;;;;;;17.55;58.14;101812.34;4904438;28;98638;-48
2022/10/06 03:06:42;;;;;;;1.33;0.50;;;;;;;17.54;58.04;101821.22;4907595;28;96796;-49
2022/10/06 03:09:08;;;;;;;4.27;0.77;;;;;;;17.51;58.08;101828.56;4905416;28;97319;-50
2022/10/06 03:11:36;;;;;;;0.50;0.40;;;;;;;17.49;58.05;101835.88;4910117;28;97668;-48
2022/10/06 03:14:02;;;;;;;1.63;0.60;;;;;;;17.48;58.32;101834.34;4907204;28;97078;-49
2022/10/06 03:16:31;;;;;;;1.70;0.50;;;;;;;17.46;58.30;101837.66;4906531;28;97244;-48
2022/10/06 03:18:57;;;;;;;0.60;0.40;;;;;;;17.45;58.24;101852.06;4902301;28;97409;-50
2022/10/06 03:21:28;;;;;;;1.03;0.40;;;;;;;17.42;58.25;101845.50;4907690;28;97101;-50
2022/10/06 03:23:55;;;;;;;0.70;0.50;;;;;;;17.41;58.25;101859.94;4909245;28;96844;-51
2022/10/06 03:26:22;;;;;;;1.33;0.70;;;;;;;17.40;58.29;101856.38;4907790;28;97441;-49
2022/10/06 03:28:48;;;;;;;3.63;0.90;;;;;;;17.39;58.29;101857.66;4900232;28;97389;-48
2022/10/06 03:31:14;;;;;;;1.10;0.57;;;;;;;17.40;58.30;101861.94;4909182;28;97361;-49
2022/10/06 03:33:40;;;;;;;1.23;0.57;;;;;;;17.36;58.42;101878.16;4907661;28;97300;-52
2022/10/06 03:36:10;;;;;;;1.33;0.53;;;;;;;17.34;58.39;101866.78;4908752;28;97083;-53
2022/10/06 03:38:36;;;;;;;0.70;0.40;;;;;;;17.32;58.37;101872.06;4904603;28;96815;-50
2022/10/06 03:41:13;;;;;;;1.57;0.60;;;;;;;17.32;58.60;101888.75;4903051;28;97460;-48
2022/10/06 03:43:43;;;;;;;0.90;0.50;;;;;;;17.32;58.45;101888.03;4906973;28;100299;-50
2022/10/06 03:46:14;;;;;;;1.47;0.50;;;;;;;17.32;58.38;101888.75;4908190;28;97920;-49
2022/10/06 03:48:39;;;;;;;4.40;0.77;;;;;;;17.30;58.48;101894.09;4908829;28;96971;-50
2022/10/06 03:51:09;;;;;;;1.73;0.53;;;;;;;17.30;58.55;101899.66;4909451;28;97148;-51
2022/10/06 03:53:34;;;;;;;2.97;0.60;;;;;;;17.29;58.43;101894.59;4900656;28;97479;-49
2022/10/06 03:56:10;;;;;;;0.80;0.53;;;;;;;17.26;58.64;101904.72;4904753;28;97967;-49
2022/10/06 03:58:38;;;;;;;6.40;0.90;;;;;;;17.21;58.46;101911.81;4906940;28;96693;-50
2022/10/06 04:01:13;;;;;;;2.90;1.37;;;;;;;17.20;58.33;101926.22;4905335;28;96940;-53
2022/10/06 04:03:39;;;;;;;2.00;0.50;;;;;;;17.15;58.44;101916.63;4901154;28;97366;-48
2022/10/06 04:06:06;;;;;;;11.43;0.70;;;;;;;17.13;58.55;101913.59;4907073;28;97570;-50
2022/10/06 04:08:33;;;;;;;5.00;1.30;;;;;;;17.13;58.60;101921.94;4907448;28;97508;-48
2022/10/06 04:11:08;;;;;;;0.97;0.57;;;;;;;17.14;58.68;101933.81;4903904;28;97144;-49
2022/10/06 04:13:34;;;;;;;0.70;0.60;;;;;;;17.11;58.63;101929.25;4908852;28;102491;-52
2022/10/06 04:16:09;;;;;;;1.13;0.70;;;;;;;17.11;58.71;101938.38;4909108;28;97192;-48
2022/10/06 04:18:34;;;;;;;7.93;1.20;;;;;;;17.09;58.58;101952.03;4906300;28;97027;-51
2022/10/06 04:20:59;;;;;;;0.70;0.50;;;;;;;17.07;58.61;101948.22;4906505;28;109410;-49
2022/10/06 04:23:24;;;;;;;5.00;1.17;;;;;;;17.06;58.59;101953.03;4906072;28;97581;-49
2022/10/06 04:25:57;;;;;;;10.53;0.80;;;;;;;17.06;58.84;101957.81;4906100;28;99151;-50
2022/10/06 04:28:22;;;;;;;0.93;0.60;;;;;;;17.02;58.75;101971.22;4905175;28;97007;-49
2022/10/06 04:30:58;;;;;;;2.47;0.50;;;;;;;17.00;59.01;101974.53;4907673;28;101530;-49
2022/10/06 04:33:23;;;;;;;1.47;0.60;;;;;;;16.98;58.70;101970.72;4910902;28;102430;-50
2022/10/06 04:35:59;;;;;;;1.60;0.60;;;;;;;16.98;58.88;101985.38;4908365;28;96805;-49
2022/10/06 04:38:25;;;;;;;1.03;0.60;;;;;;;16.96;58.89;101987.16;4907174;28;96739;-50
2022/10/06 04:40:50;;;;;;;3.13;0.90;;;;;;;16.93;58.92;101988.91;4907002;28;96909;-50
2022/10/06 04:43:15;;;;;;;3.40;0.97;;;;;;;16.92;58.94;101990.19;4905695;28;97305;-48
2022/10/06 04:45:41;;;;;;;3.13;0.60;;;;;;;16.92;58.91;101995.75;4904553;28;96869;-48
2022/10/06 04:48:06;;;;;;;1.97;0.70;;;;;;;16.89;58.94;102010.66;4905288;28;98577;-50
2022/10/06 04:50:31;;;;;;;1.73;0.50;;;;;;;16.90;58.92;102011.41;4905640;28;108345;-49
2022/10/06 04:52:57;;;;;;;4.30;0.83;;;;;;;16.91;58.91;102010.13;4906955;28;98169;-48
2022/10/06 04:55:22;;;;;;;6.47;0.70;;;;;;;16.91;58.95;102013.69;4906820;28;114281;-50
2022/10/06 04:57:47;;;;;;;1.20;0.47;;;;;;;16.91;58.79;102012.91;4902030;28;102188;-48
2022/10/06 05:00:23;;;;;;;3.77;0.60;;;;;;;16.90;58.94;102019.75;4905429;28;104512;-49
2022/10/06 05:02:48;;;;;;;2.33;0.80;;;;;;;16.90;59.00;102026.09;4904344;28;101697;-49
2022/10/06 05:05:14;;;;;;;6.53;0.77;;;;;;;16.93;58.85;102029.84;4903196;28;115825;-48
2022/10/06 05:07:43;;;;;;;2.90;0.90;;;;;;;16.96;58.87;102031.63;4904073;28;97602;-50
2022/10/06 05:10:09;;;;;;;6.60;0.70;;;;;;;16.97;58.63;102041.50;4905633;28;96778;-51
2022/10/06 05:12:34;;;;;;;0.87;0.50;;;;;;;16.98;58.62;102049.34;4905146;28;97488;-49
2022/10/06 05:15:00;;;;;;;2.27;0.97;;;;;;;17.00;58.58;102057.16;4905951;28;97782;-49
2022/10/06 05:17:25;;;;;;;5.33;1.07;;;;;;;17.01;58.65;102058.69;4907146;28;97098;-48
2022/10/06 05:19:50;;;;;;;4.70;1.40;;;;;;;17.04;58.67;102061.22;4904138;28;96879;-49
2022/10/06 05:22:15;;;;;;;11.50;0.90;;;;;;;17.05;58.51;102064.78;4905435;28;110200;-48
2022/10/06 05:24:41;;;;;;;2.77;0.70;;;;;;;17.04;58.60;102075.13;4905226;28;100036;-48
2022/10/06 05:27:06;;;;;;;2.20;0.73;;;;;;;17.03;58.64;102081.97;4905849;28;96838;-49
2022/10/06 05:29:33;;;;;;;5.93;1.27;;;;;;;17.05;58.47;102085.00;4906567;28;97033;-50
2022/10/06 05:31:58;;;;;;;1.97;0.90;;;;;;;17.03;58.59;102083.97;4900690;28;97455;-49
2022/10/06 05:34:24;;;;;;;4.70;0.73;;;;;;;16.99;58.67;102091.81;4905718;28;110850;-48
2022/10/06 05:36:49;;;;;;;3.40;0.83;;;;;;;16.99;58.67;102094.59;4904682;28;96919;-49
2022/10/06 05:39:14;;;;;;;2.03;0.80;;;;;;;17.00;58.67;102105.22;4905087;28;97114;-48
2022/10/06 05:41:40;;;;;;;4.93;0.63;;;;;;;16.97;58.61;102100.63;4905376;28;116139;-48
2022/10/06 05:44:06;;;;;;;2.90;1.10;;;;;;;16.95;58.68;102114.28;4903243;28;97220;-51
2022/10/06 05:46:32;;;;;;;2.70;0.73;;;;;;;16.97;58.64;102122.16;4906784;28;97390;-48
2022/10/06 05:48:59;;;;;;;2.67;0.73;;;;;;;16.95;58.56;102128.19;4905096;28;97452;-49
2022/10/06 05:51:28;;;;;;;7.80;0.90;;;;;;;16.92;58.61;102134.00;4907124;28;99080;-49
2022/10/06 05:53:53;;;;;;;3.60;0.70;;;;;;;16.89;58.72;102141.31;4905423;28;102447;-49
2022/10/06 05:56:28;;;;;;;7.27;1.10;;;;;;;16.86;58.53;102138.78;4907390;28;96807;-48
2022/10/06 05:58:56;;;;;;;2.33;0.77;;;;;;;16.84;58.67;102155.22;4901923;28;97313;-49
2022/10/06 06:01:23;;;;;;;2.37;0.77;;;;;;;16.83;58.59;102157.22;4906305;28;97250;-52
2022/10/06 06:03:50;;;;;;;2.40;0.73;;;;;;;16.78;58.40;102157.94;4902510;28;97224;-49
2022/10/06 06:06:17;;;;;;;2.40;1.30;;;;;;;16.73;58.68;102167.03;4905427;28;97124;-49
2022/10/06 06:08:43;;;;;;;4.83;0.80;;;;;;;16.70;58.51;102168.03;4902308;28;97238;-49
2022/10/06 06:11:09;;;;;;;2.50;0.60;;;;;;;16.68;58.59;102175.34;4905151;28;101987;-49
2022/10/06 06:13:35;;;;;;;2.77;0.90;;;;;;;16.65;58.74;102174.31;4903498;28;98232;-49
2022/10/06 06:16:03;;;;;;;1.03;0.63;;;;;;;16.63;58.59;102182.38;4901551;28;97332;-49
2022/10/06 06:18:34;;;;;;;5.43;1.20;;;;;;;16.61;58.57;102186.91;4904945;28;96940;-48
2022/10/06 06:21:02;;;;;;;1.43;0.97;;;;;;;16.56;58.69;102188.41;4905066;28;101109;-48
2022/10/06 06:23:33;;;;;;;3.30;0.80;;;;;;;16.57;58.58;102200.28;4898483;28;96918;-49
2022/10/06 06:26:05;;;;;;;4.50;0.90;;;;;;;16.56;58.50;102207.84;4908160;28;97211;-49
2022/10/06 06:28:31;;;;;;;5.67;0.77;;;;;;;16.54;58.54;102215.94;4902918;28;97476;-51
2022/10/06 06:31:18;;;;;;;3.20;1.00;;;;;;;16.55;58.41;102211.13;4904212;28;97455;-49
2022/10/06 06:33:43;;;;;;;5.83;0.93;;;;;;;16.53;58.56;102219.97;4902923;28;102525;-48
2022/10/06 06:36:34;;;;;;;3.00;0.90;;;;;;;16.52;58.70;102229.56;4905228;28;98058;-48
2022/10/06 06:39:01;;;;;;;2.13;0.73;;;;;;;16.52;58.53;102229.56;4907241;28;101045;-48
2022/10/06 06:41:32;;;;;;;2.50;0.57;;;;;;;16.53;58.55;102239.44;4906009;28;99113;-49
2022/10/06 06:44:00;;;;;;;6.97;1.17;;;;;;;16.54;58.45;102242.94;4903462;28;97245;-49
2022/10/06 06:46:30;;;;;;;18.30;1.03;;;;;;;16.54;58.39;102248.50;4904501;28;96982;-52
2022/10/06 06:48:57;;;;;;;4.93;0.83;;;;;;;16.54;58.45;102254.84;4903915;28;96875;-49
2022/10/06 06:51:23;;;;;;;1.67;0.73;;;;;;;16.56;58.38;102262.66;4904761;28;98264;-49
2022/10/06 06:53:49;;;;;;;6.90;1.17;;;;;;;16.56;58.29;102262.66;4907438;28;97624;-48
2022/10/06 06:56:15;;;;;;;7.77;1.27;;;;;;;16.59;58.45;102276.34;4903366;28;97069;-49
2022/10/06 06:58:47;;;;;;;2.73;0.70;;;;;;;16.61;58.30;102286.97;4908045;28;97233;-48
2022/10/06 07:01:18;;;;;;;1.40;0.60;;;;;;;16.63;58.42;102287.22;4903913;28;97955;-50
2022/10/06 07:03:50;;;;;;;3.87;0.97;;;;;;;16.64;58.27;102283.22;4905095;28;97472;-50
2022/10/06 07:06:16;;;;;;;5.00;1.13;;;;;;;16.65;58.25;102291.03;4907944;28;97018;-48
2022/10/06 07:08:46;;;;;;;2.67;1.13;;;;;;;16.68;58.05;102301.19;4907003;28;96973;-48
2022/10/06 07:11:19;;;;;;;3.80;0.83;;;;;;;16.71;58.06;102305.00;4909129;28;99493;-48
2022/10/06 07:13:45;;;;;;;4.33;1.10;;;;;;;16.74;57.91;102309.53;4904148;28;96909;-50
2022/10/06 07:27:29;;;;;;;3.03;0.70;;;;;;;16.80;57.64;102330.56;4904505;28;97120;-49
2022/10/06 07:29:55;;;;;;;5.10;1.00;;;;;;;16.81;57.71;102340.44;4909389;28;97457;-48
2022/10/06 07:32:21;;;;;;;3.17;0.80;;;;;;;16.83;57.65;102337.16;4906584;28;98880;-49
2022/10/06 07:34:48;;;;;;;5.63;1.10;;;;;;;16.85;57.71;102340.97;4904835;28;97521;-50
2022/10/06 07:37:14;;;;;;;3.07;0.60;;;;;;;16.87;57.58;102355.13;4908111;28;97228;-50
2022/10/06 07:39:39;;;;;;;1.47;0.83;;;;;;;16.92;57.58;102351.63;4907981;28;97054;-48
2022/10/06 07:42:13;;;;;;;3.47;1.20;;;;;;;16.95;57.30;102361.00;4903335;28;112600;-52
2022/10/06 07:44:39;;;;;;;1.87;0.60;;;;;;;16.96;57.34;102374.41;4907409;28;96951;-51
2022/10/06 07:47:05;;;;;;;4.20;0.90;;;;;;;16.98;57.31;102376.69;4909232;28;97542;-53
2022/10/06 07:49:30;;;;;;;7.50;1.00;;;;;;;16.96;57.47;102379.97;4906798;28;97239;-52
2022/10/06 07:51:57;;;;;;;5.07;1.07;;;;;;;16.98;57.36;102383.03;4906764;28;96924;-49
2022/10/06 07:54:23;;;;;;;2.73;0.90;;;;;;;17.03;57.16;102381.53;4906588;28;96936;-49
2022/10/06 07:56:49;;;;;;;2.07;0.87;;;;;;;17.07;56.92;102396.75;4904306;28;97573;-48
2022/10/06 07:59:14;;;;;;;3.13;1.03;;;;;;;17.10;57.06;102386.66;4901600;28;97226;-50
2022/10/06 08:01:40;;;;;;;3.80;1.30;;;;;;;17.11;57.08;102404.84;4903295;28;97808;-49
2022/10/06 08:04:05;;;;;;;7.60;1.20;;;;;;;17.13;56.94;102402.31;4904226;28;97464;-50
2022/10/06 08:06:33;;;;;;;7.13;1.03;;;;;;;17.19;56.96;102403.13;4908589;28;97164;-49
2022/10/06 08:08:58;;;;;;;1.80;0.93;;;;;;;17.23;56.84;102403.69;4905337;28;97300;-48
2022/10/06 08:11:24;;;;;;;1.83;1.10;;;;;;;17.27;56.74;102403.44;4907766;28;97350;-51
2022/10/06 08:13:50;;;;;;;3.23;0.90;;;;;;;17.32;56.74;102411.81;4902873;28;114712;-49
2022/10/06 08:16:21;;;;;;;3.70;1.10;;;;;;;17.36;56.21;102412.34;4906300;28;96853;-48
2022/10/06 08:18:54;;;;;;;4.00;0.97;;;;;;;17.42;56.40;102410.34;4904552;28;97462;-53
2022/10/06 08:21:25;;;;;;;3.33;0.80;;;;;;;17.47;56.32;102418.00;4904760;28;97418;-48
2022/10/06 08:23:52;;;;;;;5.07;0.87;;;;;;;17.48;56.25;102418.72;4908484;28;97376;-51
2022/10/06 08:26:19;;;;;;;11.20;1.20;;;;;;;17.54;56.11;102430.69;4906233;28;96887;-48
2022/10/06 08:28:47;;;;;;;4.60;1.00;;;;;;;17.56;56.04;102426.13;4908166;28;97015;-49
2022/10/06 08:31:14;;;;;;;6.00;1.10;;;;;;;17.59;56.26;102430.72;4905647;28;100563;-49
2022/10/06 08:33:41;;;;;;;3.63;0.80;;;;;;;17.64;56.09;102434.78;4905826;28;97993;-53
2022/10/06 08:36:14;;;;;;;4.07;1.10;;;;;;;17.70;55.70;102443.94;4904815;28;97112;-50
2022/10/06 08:38:40;;;;;;;2.40;0.60;;;;;;;17.70;55.71;102441.91;4907254;28;97335;-50
2022/10/06 08:41:32;;;;;;;6.70;1.20;;;;;;;17.73;55.35;102452.06;4903375;28;98682;-48
2022/10/06 08:44:06;;;;;;;3.27;1.17;;;;;;;17.79;55.68;102461.19;4906781;28;100002;-51
2022/10/06 08:46:41;;;;;;;5.50;0.93;;;;;;;17.87;55.24;102459.47;4906932;28;97125;-50
2022/10/06 08:49:17;;;;;;;5.60;1.03;;;;;;;17.89;55.02;102468.06;4906417;28;97450;-50
2022/10/06 08:51:43;;;;;;;2.63;1.03;;;;;;;17.94;55.52;102456.19;4904160;28;97011;-49
2022/10/06 08:54:41;;;;;;;3.47;0.77;;;;;;;18.02;54.24;102462.03;4907199;28;97146;-50
2022/10/06 08:57:19;;;;;;;4.00;0.87;;;;;;;18.08;54.49;102471.22;4907732;28;97010;-49
2022/10/06 08:59:47;;;;;;;7.00;1.00;;;;;;;18.13;54.79;102472.50;4903694;28;97044;-49
2022/10/06 09:02:33;;;;;;;4.07;1.00;;;;;;;18.15;54.25;102469.97;4906218;28;98673;-49
2022/10/06 09:05:03;;;;;;;2.37;0.60;;;;;;;18.19;54.94;102476.06;4903694;28;102067;-49
2022/10/06 09:07:47;;;;;;;4.83;1.13;;;;;;;18.21;54.94;102473.53;4902561;28;97254;-49
2022/10/06 09:10:34;;;;;;;1.40;0.70;;;;;;;18.30;53.75;102481.66;4902618;28;97016;-49
2022/10/06 09:13:05;;;;;;;8.83;1.23;;;;;;;18.40;54.60;102485.75;4905603;28;102020;-48
2022/10/06 09:15:40;;;;;;;3.90;1.00;;;;;;;18.48;54.00;102487.56;4905828;28;97270;-49
2022/10/06 09:18:14;;;;;;;4.90;0.90;;;;;;;18.49;54.23;102485.53;4902122;28;97630;-50
2022/10/06 09:20:50;;;;;;;4.03;0.80;;;;;;;18.51;53.87;102486.56;4901967;28;97462;-49
2022/10/06 09:23:46;;;;;;;8.40;1.10;;;;;;;18.51;54.17;102489.34;4903416;28;97363;-50
2022/10/06 09:26:03;;;;;;;5.67;1.10;;;;;;;18.52;54.00;102492.91;4906242;28;101435;-50
2022/10/06 09:28:28;;;;;;;4.40;1.13;;;;;;;18.59;53.91;102492.41;4906115;28;97217;-50
2022/10/06 09:30:54;;;;;;;3.03;1.10;;;;;;;18.66;53.96;102489.13;4905755;28;97163;-48
2022/10/06 09:33:23;;;;;;;2.30;0.93;;;;;;;18.76;53.78;102498.78;4901125;28;114449;-50
2022/10/06 09:36:09;;;;;;;6.60;1.40;;;;;;;18.81;52.25;102500.03;4906086;28;97366;-49
2022/10/06 09:38:56;;;;;;;2.63;0.73;;;;;;;18.80;51.92;102507.66;4901276;28;97099;-53
2022/10/06 09:41:48;;;;;;;4.13;1.00;;;;;;;18.76;52.07;102511.97;4907755;28;98223;-48
2022/10/06 09:44:23;;;;;;;5.40;1.10;;;;;;;18.76;52.43;102526.69;4902366;28;97604;-50
2022/10/06 09:46:51;;;;;;;4.97;1.20;;;;;;;18.82;53.14;102516.28;4900332;28;102582;-48
2022/10/06 09:49:21;;;;;;;3.53;1.43;;;;;;;18.87;52.64;102526.66;4904117;28;97171;-50
2022/10/06 09:52:00;;;;;;;2.20;0.60;;;;;;;18.93;52.18;102527.47;4896381;28;97403;-50
2022/10/06 09:54:30;;;;;;;3.23;0.60;;;;;;;18.99;52.91;102536.59;4904953;28;101863;-51
2022/10/06 09:56:58;;;;;;;1.77;0.70;;;;;;;19.05;52.65;102525.41;4904121;28;100103;-49
2022/10/06 09:59:30;;;;;;;3.60;0.90;;;;;;;19.08;52.47;102521.63;4905245;28;97082;-49
2022/10/06 10:01:58;;;;;;;3.27;0.60;;;;;;;19.09;52.28;102531.53;4904563;28;97113;-49
2022/10/06 10:04:29;;;;;;;1.20;0.63;;;;;;;19.10;52.15;102535.84;4901386;28;97369;-49
2022/10/06 10:07:13;;;;;;;1.77;0.73;;;;;;;19.12;50.88;102545.22;4905724;28;97214;-48
2022/10/06 10:09:40;;;;;;;2.90;1.07;;;;;;;19.14;51.96;102545.47;4906930;28;96898;-50
2022/10/06 10:12:26;;;;;;;3.80;0.93;;;;;;;19.15;51.90;102544.22;4904187;28;96925;-49
2022/10/06 10:15:20;;;;;;;2.60;0.70;;;;;;;19.13;51.18;102552.31;4905510;28;101727;-49
2022/10/06 10:17:56;;;;;;;1.33;0.50;;;;;;;19.14;51.08;102550.28;4905664;28;101206;-49
2022/10/06 10:20:21;;;;;;;2.70;0.67;;;;;;;19.15;51.61;102555.38;4901649;28;97092;-49
2022/10/06 10:22:47;;;;;;;5.23;0.90;;;;;;;19.18;51.77;102565.53;4904094;28;97399;-49
2022/10/06 10:25:52;;;;;;;1.47;0.60;;;;;;;19.19;50.61;102558.69;4903755;28;97437;-49
2022/10/06 10:28:50;;;;;;;3.63;0.90;;;;;;;19.18;50.21;102548.00;4906333;28;100787;-49
2022/10/06 10:31:48;;;;;;;2.13;1.00;;;;;;;19.22;50.69;102557.66;4875843;28;97520;-48
2022/10/06 10:34:41;;;;;;;1.70;0.57;;;;;;;19.24;50.31;102557.91;4907812;28;97088;-50
2022/10/06 10:37:16;;;;;;;5.20;0.80;;;;;;;19.36;50.72;102556.69;4907176;28;100600;-50
2022/10/06 10:39:49;;;;;;;1.17;0.90;;;;;;;19.35;50.31;102551.63;4907798;28;101553;-49
2022/10/06 10:42:28;;;;;;;2.23;0.83;;;;;;;19.23;50.09;102558.41;4907126;28;97388;-51
2022/10/06 10:44:58;;;;;;;7.53;1.37;;;;;;;19.12;50.60;102564.00;4905218;28;96977;-50
2022/10/06 10:47:33;;;;;;;1.93;0.70;;;;;;;19.07;50.21;102565.50;4909032;28;97450;-49
2022/10/06 10:50:10;;;;;;;3.37;1.10;;;;;;;19.11;50.45;102568.81;4906907;28;97496;-51
2022/10/06 10:52:40;;;;;;;1.50;0.70;;;;;;;19.12;50.83;102567.56;4905962;28;96649;-50
2022/10/06 10:55:26;;;;;;;4.70;0.90;;;;;;;19.23;50.83;102566.78;4907755;28;97322;-53
2022/10/06 10:57:58;;;;;;;6.40;0.73;;;;;;;19.21;50.50;102570.09;4909263;28;100593;-49
2022/10/06 11:00:27;;;;;;;5.60;0.80;;;;;;;19.23;50.65;102578.72;4907409;28;100328;-49
2022/10/06 11:02:55;;;;;;;7.73;1.23;;;;;;;19.18;50.25;102576.69;4907974;28;96960;-50
2022/10/06 11:05:32;;;;;;;2.03;0.90;;;;;;;19.23;49.74;102573.13;4908255;28;97428;-49
2022/10/06 11:08:17;;;;;;;4.20;0.53;;;;;;;19.31;49.06;102574.16;4907705;28;100946;-48
2022/10/06 11:10:54;;;;;;;2.97;0.70;;;;;;;19.41;49.47;102578.25;4909350;28;101596;-49
2022/10/06 11:13:23;;;;;;;3.50;0.80;;;;;;;19.54;50.08;102574.19;4908596;28;97204;-48
2022/10/06 11:16:25;;;;;;;1.93;0.57;;;;;;;19.53;48.15;102579.00;4910182;28;97439;-49
2022/10/06 11:19:07;;;;;;;3.43;0.83;;;;;;;19.41;48.45;102564.31;4904746;28;100429;-49
2022/10/06 11:21:45;;;;;;;1.83;0.67;;;;;;;19.55;48.96;102570.13;4908396;28;97795;-49
2022/10/06 11:24:44;;;;;;;5.03;0.83;;;;;;;19.77;48.31;102581.25;4908735;28;97369;-48
2022/10/06 11:27:34;;;;;;;2.00;0.63;;;;;;;20.06;48.28;102587.06;4908281;28;97266;-49
2022/10/06 11:30:11;;;;;;;2.47;0.60;;;;;;;20.29;48.13;102582.16;4907206;28;100445;-50
2022/10/06 11:32:49;;;;;;;2.30;0.53;;;;;;;20.32;48.28;102591.56;4910856;28;98617;-50
2022/10/06 11:35:17;;;;;;;1.77;0.77;;;;;;;20.32;48.62;102592.34;4906340;28;97360;-49
2022/10/06 11:38:01;;;;;;;2.87;0.90;;;;;;;20.23;48.54;102600.25;4905058;28;97310;-49
2022/10/06 11:40:37;;;;;;;5.00;1.00;;;;;;;20.05;48.33;102598.75;4905204;28;100783;-53
2022/10/06 11:43:28;;;;;;;4.17;1.00;;;;;;;19.94;48.08;102599.53;4904684;28;100275;-50
2022/10/06 11:45:58;;;;;;;3.43;0.70;;;;;;;19.89;48.58;102602.34;4902940;28;97354;-48
2022/10/06 11:48:31;;;;;;;2.67;0.60;;;;;;;19.92;48.21;102602.06;4907710;28;97052;-48